createdAt,value
2023-05-07T00:01:27.244Z,18.70
2023-05-07T00:03:54.625Z,18.80
2023-05-07T00:06:34.272Z,18.70
2023-05-07T00:09:02.164Z,18.70
2023-05-07T00:11:30.080Z,18.70
2023-05-07T00:13:57.567Z,18.70
2023-05-07T00:16:25.111Z,18.70
2023-05-07T00:18:52.365Z,18.60
2023-05-07T00:21:19.579Z,18.60
2023-05-07T00:23:46.900Z,18.60
2023-05-07T00:26:14.200Z,18.60
2023-05-07T00:28:42.421Z,18.60
2023-05-07T00:31:28.668Z,18.60
2023-05-07T00:33:56.073Z,18.50
2023-05-07T00:36:23.375Z,18.50
2023-05-07T00:38:50.743Z,18.50
2023-05-07T00:41:18.131Z,18.50
2023-05-07T00:43:45.769Z,18.50
2023-05-07T00:46:14.753Z,18.50
2023-05-07T00:48:42.455Z,18.50
2023-05-07T00:51:12.437Z,18.50
2023-05-07T00:54:02.074Z,18.40
2023-05-07T00:56:29.849Z,18.40
2023-05-07T00:58:57.610Z,18.50
2023-05-07T01:01:43.955Z,18.50
2023-05-07T01:04:11.366Z,18.50
2023-05-07T01:07:17.574Z,18.50
2023-05-07T01:09:45.123Z,18.50
2023-05-07T01:12:32.528Z,18.50
2023-05-07T01:15:00.013Z,18.50
2023-05-07T01:17:31.052Z,18.40
2023-05-07T01:19:58.337Z,18.50
2023-05-07T01:22:35.046Z,18.50
2023-05-07T01:25:02.914Z,18.50
2023-05-07T01:27:30.307Z,18.50
2023-05-07T01:29:57.879Z,18.50
2023-05-07T01:32:41.967Z,18.50
2023-05-07T01:35:14.942Z,18.50
2023-05-07T01:38:19.867Z,18.50
2023-05-07T01:40:47.430Z,18.50
2023-05-07T01:43:15.123Z,18.50
2023-05-07T01:45:43.130Z,18.50
2023-05-07T01:48:13.786Z,18.50
2023-05-07T01:50:42.118Z,18.50
2023-05-07T01:53:09.528Z,18.50
2023-05-07T01:55:38.053Z,18.50
2023-05-07T01:58:05.952Z,18.50
2023-05-07T02:01:29.225Z,18.50
2023-05-07T02:03:56.496Z,18.40
2023-05-07T02:06:23.789Z,18.50
2023-05-07T02:08:52.124Z,18.40
2023-05-07T02:11:19.367Z,18.40
2023-05-07T02:13:46.600Z,18.30
2023-05-07T02:16:15.509Z,18.30
2023-05-07T02:18:42.883Z,18.20
2023-05-07T02:21:10.121Z,18.20
2023-05-07T02:23:39.509Z,18.20
2023-05-07T02:26:07.021Z,18.10
2023-05-07T02:28:36.555Z,18.10
2023-05-07T02:31:07.258Z,18.00
2023-05-07T02:33:36.184Z,18.00
2023-05-07T02:36:11.697Z,17.90
2023-05-07T02:38:39.482Z,17.90
2023-05-07T02:41:06.776Z,17.90
2023-05-07T02:43:34.040Z,17.80
2023-05-07T02:46:06.448Z,17.80
2023-05-07T02:48:34.356Z,17.80
2023-05-07T02:51:41.233Z,17.80
2023-05-07T02:54:08.434Z,17.80
2023-05-07T02:56:35.854Z,17.80
2023-05-07T02:59:03.060Z,17.70
2023-05-07T03:01:30.284Z,17.80
2023-05-07T03:03:57.530Z,17.80
2023-05-07T03:06:24.782Z,17.80
2023-05-07T03:08:51.932Z,17.80
2023-05-07T03:11:39.982Z,17.80
2023-05-07T03:15:22.341Z,17.80
2023-05-07T03:17:49.985Z,17.80
2023-05-07T03:20:17.572Z,17.80
2023-05-07T03:22:44.979Z,17.80
2023-05-07T03:25:12.264Z,17.80
2023-05-07T03:27:39.516Z,17.80
2023-05-07T03:30:08.979Z,17.80
2023-05-07T03:32:37.272Z,17.80
2023-05-07T03:35:05.287Z,17.80
2023-05-07T03:37:32.538Z,17.80
2023-05-07T03:39:59.906Z,17.80
2023-05-07T03:42:27.236Z,17.90
2023-05-07T03:44:54.386Z,17.80
2023-05-07T03:47:40.403Z,17.80
2023-05-07T03:50:14.157Z,17.80
2023-05-07T03:52:41.692Z,17.80
2023-05-07T03:55:09.807Z,17.90
2023-05-07T03:57:37.012Z,17.80
2023-05-07T04:00:05.773Z,17.80
2023-05-07T04:02:34.468Z,17.80
2023-05-07T04:05:01.791Z,17.80
2023-05-07T04:07:29.112Z,17.80
2023-05-07T04:09:56.393Z,17.80
2023-05-07T04:12:23.730Z,17.80
2023-05-07T04:14:51.443Z,17.80
2023-05-07T04:17:18.658Z,17.80
2023-05-07T04:19:46.856Z,17.80
2023-05-07T04:22:14.186Z,17.80
2023-05-07T04:24:41.446Z,17.80
2023-05-07T04:27:08.693Z,17.70
2023-05-07T04:29:36.307Z,17.70
2023-05-07T04:32:03.617Z,17.70
2023-05-07T04:34:30.972Z,17.70
2023-05-07T04:37:00.870Z,17.80
2023-05-07T04:39:28.213Z,17.80
2023-05-07T04:41:55.807Z,17.80
2023-05-07T04:44:23.178Z,17.80
2023-05-07T04:46:52.949Z,17.80
2023-05-07T04:49:20.132Z,17.80
2023-05-07T04:51:47.496Z,17.90
2023-05-07T04:54:14.820Z,17.90
2023-05-07T04:56:42.167Z,17.90
2023-05-07T04:59:09.392Z,17.90
2023-05-07T05:01:36.769Z,18.00
2023-05-07T05:04:04.155Z,18.00
2023-05-07T05:06:31.829Z,18.00
2023-05-07T05:08:59.060Z,18.10
2023-05-07T05:11:26.352Z,18.10
2023-05-07T05:13:53.707Z,18.10
2023-05-07T05:16:21.230Z,18.20
2023-05-07T05:18:48.472Z,18.20
2023-05-07T05:21:16.720Z,18.30
2023-05-07T05:23:45.165Z,18.30
2023-05-07T05:26:12.675Z,18.40
2023-05-07T05:28:40.072Z,18.40
2023-05-07T05:31:08.453Z,18.40
2023-05-07T05:33:36.173Z,18.50
2023-05-07T05:36:03.475Z,18.60
2023-05-07T05:38:32.849Z,18.60
2023-05-07T05:41:00.162Z,18.70
2023-05-07T05:43:27.648Z,18.70
2023-05-07T05:48:54.371Z,18.80
2023-05-07T05:51:24.318Z,18.90
2023-05-07T05:58:02.494Z,19.10
2023-05-07T06:00:30.460Z,19.20
2023-05-07T06:03:00.661Z,19.20
2023-05-07T06:05:28.091Z,19.30
2023-05-07T06:07:55.415Z,19.30
2023-05-07T06:10:22.627Z,19.40
2023-05-07T06:12:49.962Z,19.50
2023-05-07T06:15:17.320Z,19.50
2023-05-07T06:17:44.611Z,19.60
2023-05-07T06:20:12.498Z,19.70
2023-05-07T06:22:39.913Z,19.80
2023-05-07T06:25:07.904Z,19.80
2023-05-07T06:27:34.990Z,19.90
2023-05-07T06:30:02.288Z,19.90
2023-05-07T06:32:29.521Z,19.90
2023-05-07T06:34:56.902Z,20.00
2023-05-07T06:37:27.342Z,20.10
2023-05-07T06:39:54.573Z,20.20
2023-05-07T06:43:36.824Z,20.20
2023-05-07T06:46:04.141Z,20.30
2023-05-07T06:48:31.372Z,20.50
2023-05-07T06:50:59.090Z,20.70
2023-05-07T06:53:27.055Z,20.80
2023-05-07T06:55:54.310Z,21.00
2023-05-07T06:58:21.515Z,21.10
2023-05-07T07:00:48.723Z,21.20
2023-05-07T07:07:25.874Z,21.50
2023-05-07T07:09:52.989Z,21.60
2023-05-07T07:16:30.345Z,21.90
2023-05-07T07:18:57.592Z,22.20
2023-05-07T07:21:24.721Z,22.30
2023-05-07T07:23:51.964Z,22.50
2023-05-07T07:26:19.354Z,22.60
2023-05-07T07:28:47.573Z,22.70
2023-05-07T07:31:15.152Z,22.80
2023-05-07T07:33:42.780Z,22.90
2023-05-07T07:36:10.618Z,23.00
2023-05-07T07:38:38.110Z,23.20
2023-05-07T07:41:05.400Z,23.30
2023-05-07T07:43:32.858Z,23.40
2023-05-07T07:46:00.051Z,23.40
2023-05-07T07:48:27.319Z,23.50
2023-05-07T07:50:54.522Z,23.60
2023-05-07T07:53:21.731Z,23.70
2023-05-07T07:55:48.967Z,23.80
2023-05-07T07:58:16.280Z,23.90
2023-05-07T08:00:46.359Z,23.90
2023-05-07T08:03:14.099Z,24.00
2023-05-07T08:05:41.436Z,24.10
2023-05-07T08:08:09.300Z,24.20
2023-05-07T08:10:39.452Z,24.30
2023-05-07T08:13:07.106Z,24.40
2023-05-07T08:15:34.640Z,24.50
2023-05-07T08:18:03.643Z,24.60
2023-05-07T08:20:30.943Z,24.80
2023-05-07T08:22:58.618Z,24.90
2023-05-07T08:25:25.896Z,25.10
2023-05-07T08:36:12.775Z,25.60
2023-05-07T08:38:41.992Z,25.90
2023-05-07T08:41:12.326Z,26.00
2023-05-07T08:43:42.020Z,26.10
2023-05-07T08:46:12.552Z,26.20
2023-05-07T08:48:41.196Z,26.50
2023-05-07T08:51:09.950Z,26.70
2023-05-07T08:53:38.045Z,26.90
2023-05-07T08:56:07.327Z,27.10
2023-05-07T08:58:34.485Z,27.30
2023-05-07T09:01:09.819Z,27.50
2023-05-07T09:03:40.319Z,27.70
2023-05-07T09:06:08.011Z,27.90
2023-05-07T09:08:37.208Z,28.00
2023-05-07T09:11:04.960Z,28.10
2023-05-07T09:13:32.258Z,28.20
2023-05-07T09:15:59.628Z,28.30
2023-05-07T09:18:26.868Z,28.40
2023-05-07T09:20:54.186Z,28.50
2023-05-07T09:23:22.597Z,28.70
2023-05-07T09:25:49.827Z,29.00
2023-05-07T09:28:17.023Z,29.10
2023-05-07T09:30:44.336Z,29.10
2023-05-07T09:33:14.543Z,29.10
2023-05-07T09:35:41.945Z,29.00
2023-05-07T09:38:09.652Z,29.00
2023-05-07T09:40:39.425Z,29.00
2023-05-07T09:43:15.289Z,28.90
2023-05-07T09:46:26.328Z,28.90
2023-05-07T09:49:02.756Z,28.90
2023-05-07T09:51:53.494Z,28.90
2023-05-07T09:54:21.160Z,28.80
2023-05-07T09:56:52.652Z,28.90
2023-05-07T09:59:44.298Z,29.00
2023-05-07T10:02:12.304Z,29.00
2023-05-07T10:04:43.778Z,29.30
2023-05-07T10:07:11.821Z,29.40
2023-05-07T10:10:54.223Z,29.60
2023-05-07T10:13:22.277Z,29.80
2023-05-07T10:16:45.872Z,30.00
2023-05-07T10:19:14.103Z,30.10
2023-05-07T10:21:52.736Z,30.20
2023-05-07T10:25:18.776Z,30.10
2023-05-07T10:27:49.537Z,30.10
2023-05-07T10:30:42.509Z,30.00
2023-05-07T10:33:14.885Z,30.00
2023-05-07T10:35:48.937Z,29.90
2023-05-07T10:38:16.592Z,29.90
2023-05-07T10:40:47.824Z,29.90
2023-05-07T10:43:17.999Z,29.90
2023-05-07T10:46:20.282Z,30.00
2023-05-07T10:49:07.225Z,30.10
2023-05-07T10:51:36.534Z,30.20
2023-05-07T10:54:12.996Z,30.20
2023-05-07T10:56:44.194Z,30.20
2023-05-07T10:59:28.654Z,30.30
2023-05-07T11:01:59.120Z,30.40
2023-05-07T11:04:28.676Z,30.40
2023-05-07T11:07:10.947Z,30.60
2023-05-07T11:10:02.753Z,30.60
2023-05-07T11:12:39.920Z,30.70
2023-05-07T11:15:12.963Z,30.90
2023-05-07T11:18:01.285Z,31.00
2023-05-07T11:21:43.739Z,31.20
2023-05-07T11:24:11.940Z,31.40
2023-05-07T11:26:51.223Z,31.70
2023-05-07T11:29:24.008Z,31.90
2023-05-07T11:31:56.502Z,32.00
2023-05-07T11:34:28.354Z,32.00
2023-05-07T11:41:08.412Z,31.90
2023-05-07T11:43:37.223Z,31.80
2023-05-07T11:46:12.694Z,31.60
2023-05-07T11:48:40.779Z,31.40
2023-05-07T11:55:20.581Z,31.10
2023-05-07T11:57:49.027Z,31.00
2023-05-07T12:00:17.978Z,30.90
2023-05-07T12:02:51.794Z,30.90
2023-05-07T12:05:19.245Z,30.80
2023-05-07T12:07:46.629Z,30.70
2023-05-07T12:10:16.963Z,30.70
2023-05-07T12:12:48.401Z,30.70
2023-05-07T12:15:23.657Z,30.70
2023-05-07T12:17:51.798Z,30.70
2023-05-07T12:24:21.891Z,30.80
2023-05-07T12:26:50.422Z,31.00
2023-05-07T12:29:17.796Z,31.30
2023-05-07T12:31:45.355Z,31.40
2023-05-07T12:34:13.562Z,31.60
2023-05-07T12:36:42.206Z,31.70
2023-05-07T12:39:11.041Z,31.80
2023-05-07T12:41:59.844Z,31.90
2023-05-07T12:44:34.518Z,31.90
2023-05-07T12:48:23.857Z,31.80
2023-05-07T12:50:52.957Z,31.70
2023-05-07T12:53:24.745Z,31.60
2023-05-07T12:55:59.009Z,31.40
2023-05-07T12:58:34.099Z,31.30
2023-05-07T13:01:20.467Z,31.10
2023-05-07T13:03:51.738Z,31.00
2023-05-07T13:06:19.098Z,30.80
2023-05-07T13:08:46.413Z,30.60
2023-05-07T13:11:15.026Z,30.50
2023-05-07T13:13:43.077Z,30.30
2023-05-07T13:16:12.860Z,30.10
2023-05-07T13:18:42.118Z,29.90
2023-05-07T13:21:11.929Z,29.70
2023-05-07T13:23:39.806Z,29.60
2023-05-07T13:26:25.484Z,29.40
2023-05-07T13:28:57.071Z,29.30
2023-05-07T13:31:25.298Z,29.10
2023-05-07T13:33:53.799Z,29.00
2023-05-07T13:36:59.094Z,28.80
2023-05-07T13:39:26.447Z,28.70
2023-05-07T13:41:53.794Z,28.60
2023-05-07T13:44:21.932Z,28.50
2023-05-07T13:46:49.528Z,28.40
2023-05-07T13:49:16.892Z,28.40
2023-05-07T13:51:44.180Z,28.30
2023-05-07T13:54:11.648Z,28.30
2023-05-07T13:56:38.838Z,28.20
2023-05-07T13:59:06.403Z,28.20
2023-05-07T14:01:33.762Z,28.20
2023-05-07T14:04:01.551Z,28.20
2023-05-07T14:10:39.213Z,27.90
2023-05-07T14:13:06.705Z,27.50
2023-05-07T14:15:34.122Z,27.20
2023-05-07T14:18:02.009Z,26.90
2023-05-07T14:20:29.533Z,26.60
2023-05-07T14:22:58.235Z,26.30
2023-05-07T14:26:41.758Z,26.00
2023-05-07T14:29:08.922Z,25.70
2023-05-07T14:31:36.324Z,25.40
2023-05-07T14:34:03.746Z,25.20
2023-05-07T14:36:32.885Z,25.10
2023-05-07T14:39:00.598Z,25.00
2023-05-07T14:41:27.865Z,24.90
2023-05-07T14:43:55.170Z,24.90
2023-05-07T14:46:22.917Z,24.90
2023-05-07T14:48:50.155Z,24.90
2023-05-07T14:51:17.456Z,24.90
2023-05-07T14:53:46.261Z,24.90
2023-05-07T14:56:13.792Z,24.90
2023-05-07T15:02:51.093Z,24.80
2023-05-07T15:05:20.386Z,24.80
2023-05-07T15:07:47.598Z,24.80
2023-05-07T15:10:14.931Z,24.90
2023-05-07T15:12:42.225Z,25.00
2023-05-07T15:15:10.938Z,25.10
2023-05-07T15:17:38.635Z,25.20
2023-05-07T15:24:16.115Z,25.60
2023-05-07T15:26:43.360Z,25.90
2023-05-07T15:29:11.524Z,26.20
2023-05-07T15:31:40.290Z,26.40
2023-05-07T15:34:07.792Z,26.70
2023-05-07T15:36:35.297Z,26.80
2023-05-07T15:39:04.652Z,26.90
2023-05-07T15:45:44.256Z,27.10
2023-05-07T15:48:12.190Z,27.20
2023-05-07T15:50:39.398Z,27.30
2023-05-07T15:53:06.694Z,27.40
2023-05-07T15:55:34.576Z,27.50
2023-05-07T16:03:26.830Z,27.80
2023-05-07T16:05:54.579Z,27.90
2023-05-07T16:08:21.931Z,27.90
2023-05-07T16:10:49.801Z,27.80
2023-05-07T16:13:20.449Z,27.80
2023-05-07T16:15:50.774Z,27.80
2023-05-07T16:18:18.050Z,27.70
2023-05-07T16:24:56.245Z,27.60
2023-05-07T16:27:23.326Z,27.60
2023-05-07T16:29:50.611Z,27.40
2023-05-07T16:32:17.818Z,27.30
2023-05-07T16:34:45.057Z,27.20
2023-05-07T16:37:12.211Z,27.00
2023-05-07T16:43:49.689Z,26.70
2023-05-07T16:46:17.058Z,26.40
2023-05-07T16:48:44.377Z,26.30
2023-05-07T16:51:11.550Z,26.10
2023-05-07T16:54:20.499Z,25.80
2023-05-07T16:56:48.073Z,25.60
2023-05-07T16:59:16.025Z,25.40
2023-05-07T17:01:43.301Z,25.20
2023-05-07T17:04:10.592Z,25.00
2023-05-07T17:06:37.988Z,24.80
2023-05-07T17:09:05.375Z,24.60
2023-05-07T17:11:34.361Z,24.40
2023-05-07T17:14:03.420Z,24.30
2023-05-07T17:16:33.185Z,24.10
2023-05-07T17:19:00.529Z,24.00
2023-05-07T17:21:27.879Z,23.80
2023-05-07T17:23:55.234Z,23.70
2023-05-07T17:26:22.617Z,23.50
2023-05-07T17:28:49.940Z,23.40
2023-05-07T17:31:17.404Z,23.30
2023-05-07T17:33:44.625Z,23.10
2023-05-07T17:36:12.040Z,23.00
2023-05-07T17:38:39.374Z,23.00
2023-05-07T17:41:06.538Z,22.90
2023-05-07T17:43:33.801Z,22.80
2023-05-07T17:46:01.030Z,22.70
2023-05-07T17:48:28.374Z,22.70
2023-05-07T17:51:02.958Z,22.70
2023-05-07T17:53:31.230Z,22.70
2023-05-07T17:55:58.422Z,22.60
2023-05-07T17:58:26.836Z,22.60
2023-05-07T18:00:55.769Z,22.60
2023-05-07T18:03:24.957Z,22.60
2023-05-07T18:05:52.270Z,22.50
2023-05-07T18:08:19.639Z,22.50
2023-05-07T18:10:47.112Z,22.40
2023-05-07T18:13:14.462Z,22.40
2023-05-07T18:15:41.844Z,22.40
2023-05-07T18:18:09.163Z,22.40
2023-05-07T18:20:55.222Z,22.30
2023-05-07T18:23:22.384Z,22.30
2023-05-07T18:25:49.674Z,22.20
2023-05-07T18:28:19.141Z,22.20
2023-05-07T18:30:46.845Z,22.10
2023-05-07T18:33:14.355Z,22.10
2023-05-07T18:35:41.932Z,22.00
2023-05-07T18:38:10.130Z,22.00
2023-05-07T18:41:05.714Z,21.90
2023-05-07T18:43:34.166Z,21.90
2023-05-07T18:46:01.993Z,21.80
2023-05-07T18:52:30.381Z,21.60
2023-05-07T18:54:57.561Z,21.60
2023-05-07T18:57:25.162Z,21.50
2023-05-07T18:59:56.509Z,21.40
2023-05-07T19:02:24.461Z,21.40
2023-05-07T19:04:53.429Z,21.30
2023-05-07T19:07:21.364Z,21.30
2023-05-07T19:10:03.633Z,21.20
2023-05-07T19:12:32.525Z,21.10
2023-05-07T19:14:59.851Z,21.00
2023-05-07T19:17:27.718Z,21.00
2023-05-07T19:19:55.092Z,20.90
2023-05-07T19:22:22.624Z,20.90
2023-05-07T19:24:50.055Z,20.80
2023-05-07T19:27:18.679Z,20.80
2023-05-07T19:29:46.194Z,20.80
2023-05-07T19:32:13.386Z,20.70
2023-05-07T19:34:41.186Z,20.70
2023-05-07T19:37:08.481Z,20.60
2023-05-07T19:39:35.697Z,20.60
2023-05-07T19:42:03.025Z,20.60
2023-05-07T19:44:30.278Z,20.60
2023-05-07T19:46:59.398Z,20.60
2023-05-07T19:49:26.860Z,20.60
2023-05-07T19:51:54.875Z,20.50
2023-05-07T19:54:22.836Z,20.50
2023-05-07T19:56:50.001Z,20.50
2023-05-07T19:59:17.272Z,20.50
2023-05-07T20:01:44.871Z,20.50
2023-05-07T20:04:12.066Z,20.50
2023-05-07T20:06:39.375Z,20.50
2023-05-07T20:09:10.412Z,20.50
2023-05-07T20:11:37.883Z,20.50
2023-05-07T20:14:06.090Z,20.50
2023-05-07T20:16:34.066Z,20.50
2023-05-07T20:19:01.265Z,20.50
2023-05-07T20:21:28.570Z,20.50
2023-05-07T20:23:55.963Z,20.50
2023-05-07T20:26:23.112Z,20.50
2023-05-07T20:32:51.413Z,20.50
2023-05-07T20:35:18.881Z,20.50
2023-05-07T20:41:56.770Z,20.50
2023-05-07T20:44:26.624Z,20.50
2023-05-07T20:55:13.913Z,20.50
2023-05-07T21:06:01.621Z,20.50
2023-05-07T21:08:29.128Z,20.50
2023-05-07T21:15:29.004Z,20.50
2023-05-07T21:17:56.132Z,20.50
2023-05-07T21:20:23.547Z,20.40
2023-05-07T21:22:50.922Z,20.40
2023-05-07T21:25:18.384Z,20.40
2023-05-07T21:27:45.842Z,20.40
2023-05-07T21:30:14.795Z,20.30
2023-05-07T21:32:42.238Z,20.30
2023-05-07T21:35:09.794Z,20.30
2023-05-07T21:37:55.963Z,20.20
2023-05-07T21:40:23.099Z,20.20
2023-05-07T21:42:50.449Z,20.20
2023-05-07T21:45:18.213Z,20.20
2023-05-07T21:47:46.206Z,20.20
2023-05-07T21:50:14.507Z,20.10
2023-05-07T21:52:52.716Z,20.10
2023-05-07T21:55:28.365Z,20.10
2023-05-07T21:58:54.552Z,20.10
2023-05-07T22:01:24.251Z,20.00
2023-05-07T22:03:52.608Z,20.00
2023-05-07T22:06:23.150Z,20.00
2023-05-07T22:08:50.846Z,20.00
2023-05-07T22:11:18.359Z,20.00
2023-05-07T22:13:46.283Z,20.00
2023-05-07T22:16:13.574Z,19.90
2023-05-07T22:18:41.574Z,19.90
2023-05-07T22:21:11.597Z,19.90
2023-05-07T22:23:41.620Z,19.90
2023-05-07T22:26:14.390Z,19.90
2023-05-07T22:28:43.008Z,19.90
2023-05-07T22:31:13.423Z,19.90
2023-05-07T22:33:42.357Z,19.90
2023-05-07T22:36:09.647Z,19.90
2023-05-07T22:38:36.893Z,19.90
2023-05-07T22:41:04.142Z,19.90
2023-05-07T22:43:31.390Z,19.90
2023-05-07T22:46:02.749Z,19.90
2023-05-07T22:48:30.530Z,19.90
2023-05-07T22:50:57.873Z,19.90
2023-05-07T22:53:25.697Z,19.90
2023-05-07T22:55:53.051Z,19.90
2023-05-07T22:58:20.503Z,19.80
2023-05-07T23:00:47.909Z,19.80
2023-05-07T23:03:15.114Z,19.80
2023-05-07T23:05:42.589Z,19.80
2023-05-07T23:08:09.687Z,19.80
2023-05-07T23:10:37.109Z,19.80
2023-05-07T23:13:04.850Z,19.80
2023-05-07T23:15:33.489Z,19.80
2023-05-07T23:18:00.829Z,19.80
2023-05-07T23:20:28.319Z,19.80
2023-05-07T23:22:55.772Z,19.70
2023-05-07T23:25:23.060Z,19.70
2023-05-07T23:27:51.992Z,19.70
2023-05-07T23:30:19.319Z,19.70
2023-05-07T23:32:46.656Z,19.70
2023-05-07T23:35:13.992Z,19.70
2023-05-07T23:37:41.508Z,19.70
2023-05-07T23:40:09.082Z,19.60
2023-05-07T23:42:36.285Z,19.60
2023-05-07T23:45:04.383Z,19.60
2023-05-07T23:47:31.625Z,19.60
2023-05-07T23:49:58.860Z,19.50
2023-05-07T23:52:26.123Z,19.50
2023-05-07T23:54:53.440Z,19.50
2023-05-07T23:57:20.645Z,19.50
2023-05-07T23:59:47.903Z,19.50
